createdAt,value
2018-12-04T00:00:50.175Z,8.16
2018-12-04T00:02:50.148Z,8.18
2018-12-04T00:04:50.459Z,8.16
2018-12-04T00:06:50.602Z,8.22
2018-12-04T00:08:50.574Z,8.24
2018-12-04T00:10:50.644Z,8.32
2018-12-04T00:12:50.614Z,8.45
2018-12-04T00:14:50.667Z,8.45
2018-12-04T00:16:49.891Z,8.64
2018-12-04T00:18:49.907Z,8.77
2018-12-04T00:20:49.885Z,8.81
2018-12-04T00:22:49.868Z,8.88
2018-12-04T00:24:49.875Z,8.94
2018-12-04T00:26:50.077Z,8.97
2018-12-04T00:28:50.119Z,9.01
2018-12-04T00:30:50.150Z,8.99
2018-12-04T00:32:50.135Z,9.01
2018-12-04T00:34:50.332Z,9.00
2018-12-04T00:36:50.504Z,9.01
2018-12-04T00:38:50.463Z,9.02
2018-12-04T00:40:50.536Z,9.05
2018-12-04T00:42:50.510Z,9.07
2018-12-04T00:44:50.471Z,9.11
2018-12-04T00:46:49.704Z,9.12
2018-12-04T00:48:49.694Z,9.11
2018-12-04T00:50:50.677Z,9.10
2018-12-04T00:52:49.734Z,9.08
2018-12-04T00:54:49.718Z,9.06
2018-12-04T00:56:49.926Z,8.97
2018-12-04T00:58:49.944Z,8.94
2018-12-04T01:00:49.938Z,8.93
2018-12-04T01:02:49.918Z,8.89
2018-12-04T01:04:50.285Z,8.85
2018-12-04T01:06:50.446Z,8.83
2018-12-04T01:08:50.451Z,8.83
2018-12-04T01:10:50.439Z,8.83
2018-12-04T01:12:50.542Z,8.84
2018-12-04T01:14:50.522Z,8.87
2018-12-04T01:16:49.793Z,8.91
2018-12-04T01:18:49.816Z,8.91
2018-12-04T01:20:49.838Z,8.91
2018-12-04T01:22:49.870Z,8.94
2018-12-04T01:24:49.874Z,8.94
2018-12-04T01:26:50.252Z,8.99
2018-12-04T01:28:50.236Z,9.02
2018-12-04T01:30:50.189Z,8.98
2018-12-04T01:32:50.231Z,8.92
2018-12-04T01:34:50.487Z,8.88
2018-12-04T01:36:50.553Z,8.89
2018-12-04T01:38:50.567Z,8.91
2018-12-04T01:40:50.500Z,8.98
2018-12-04T01:42:50.597Z,8.98
2018-12-04T01:44:50.518Z,8.96
2018-12-04T01:46:49.739Z,8.97
2018-12-04T01:48:49.829Z,8.96
2018-12-04T01:50:49.794Z,8.95
2018-12-04T01:52:49.786Z,8.94
2018-12-04T01:54:49.847Z,8.94
2018-12-04T01:56:50.133Z,8.93
2018-12-04T01:58:50.077Z,8.95
2018-12-04T02:00:50.099Z,8.99
2018-12-04T02:02:50.110Z,9.00
2018-12-04T02:04:50.472Z,9.02
2018-12-04T02:06:50.651Z,9.01
2018-12-04T02:08:50.698Z,9.01
2018-12-04T02:10:50.689Z,9.01
2018-12-04T02:12:50.678Z,9.01
2018-12-04T02:14:49.753Z,9.03
2018-12-04T02:16:49.993Z,9.03
2018-12-04T02:18:49.977Z,9.04
2018-12-04T02:20:50.100Z,9.03
2018-12-04T02:22:50.133Z,8.98
2018-12-04T02:24:50.211Z,8.95
2018-12-04T02:26:50.559Z,8.93
2018-12-04T02:28:50.637Z,8.92
2018-12-04T02:30:49.730Z,8.93
2018-12-04T02:32:49.785Z,8.93
2018-12-04T02:34:50.345Z,8.93
2018-12-04T02:36:50.591Z,8.92
2018-12-04T02:38:50.488Z,8.92
2018-12-04T02:40:50.569Z,8.92
2018-12-04T02:42:50.559Z,8.95
2018-12-04T02:44:50.547Z,8.96
2018-12-04T02:46:49.733Z,8.97
2018-12-04T02:48:49.742Z,8.99
2018-12-04T02:50:49.698Z,8.98
2018-12-04T02:52:50.671Z,8.94
2018-12-04T02:54:50.608Z,8.96
2018-12-04T02:56:49.823Z,8.96
2018-12-04T02:58:49.787Z,8.96
2018-12-04T03:00:49.832Z,8.96
2018-12-04T03:02:49.953Z,8.96
2018-12-04T03:04:50.490Z,8.94
2018-12-04T03:06:49.740Z,8.93
2018-12-04T03:08:49.923Z,8.93
2018-12-04T03:10:49.863Z,8.94
2018-12-04T03:12:49.966Z,8.95
2018-12-04T03:14:49.982Z,8.95
2018-12-04T03:16:50.097Z,9.03
2018-12-04T03:18:50.124Z,9.03
2018-12-04T03:20:50.140Z,9.06
2018-12-04T03:22:50.177Z,9.07
2018-12-04T03:24:50.201Z,9.06
2018-12-04T03:26:50.350Z,9.04
2018-12-04T03:28:50.334Z,9.04
2018-12-04T03:30:50.351Z,9.04
2018-12-04T03:32:50.489Z,9.05
2018-12-04T03:34:49.817Z,9.06
2018-12-04T03:36:50.230Z,9.08
2018-12-04T03:38:50.126Z,9.08
2018-12-04T03:40:50.066Z,9.12
2018-12-04T03:42:50.099Z,9.12
2018-12-04T03:44:50.033Z,9.14
2018-12-04T03:46:50.180Z,9.17
2018-12-04T03:48:50.214Z,9.20
2018-12-04T03:50:50.193Z,9.22
2018-12-04T03:52:50.214Z,9.25
2018-12-04T03:54:50.224Z,9.29
2018-12-04T03:56:50.440Z,9.31
2018-12-04T03:58:50.494Z,9.33
2018-12-04T04:00:50.401Z,9.32
2018-12-04T04:02:50.430Z,9.38
2018-12-04T04:04:49.823Z,9.38
2018-12-04T04:06:50.009Z,9.39
2018-12-04T04:08:49.998Z,9.41
2018-12-04T04:10:50.031Z,9.44
2018-12-04T04:12:50.015Z,9.43
2018-12-04T04:14:49.988Z,9.41
2018-12-04T04:16:50.211Z,9.38
2018-12-04T04:18:50.170Z,9.38
2018-12-04T04:20:50.152Z,9.37
2018-12-04T04:22:50.208Z,9.36
2018-12-04T04:24:50.277Z,9.31
2018-12-04T04:26:50.484Z,9.29
2018-12-04T04:28:50.471Z,9.25
2018-12-04T04:30:50.479Z,9.28
2018-12-04T04:32:50.419Z,9.28
2018-12-04T04:34:49.887Z,9.25
2018-12-04T04:36:50.023Z,9.31
2018-12-04T04:38:50.038Z,9.35
2018-12-04T04:40:50.031Z,9.37
2018-12-04T04:42:50.065Z,9.37
2018-12-04T04:44:50.037Z,9.36
2018-12-04T04:46:50.223Z,9.36
2018-12-04T04:48:50.245Z,9.38
2018-12-04T04:50:50.242Z,9.38
2018-12-04T04:52:50.313Z,9.38
2018-12-04T04:54:50.332Z,9.38
2018-12-04T04:56:50.545Z,9.38
2018-12-04T04:58:50.531Z,9.36
2018-12-04T05:00:50.567Z,9.34
2018-12-04T05:02:50.562Z,9.35
2018-12-04T05:04:49.898Z,9.31
2018-12-04T05:06:50.013Z,9.30
2018-12-04T05:08:50.015Z,9.32
2018-12-04T05:10:50.022Z,9.31
2018-12-04T05:12:49.977Z,9.30
2018-12-04T05:14:49.971Z,9.32
2018-12-04T05:16:50.177Z,9.33
2018-12-04T05:18:50.179Z,9.32
2018-12-04T05:20:50.209Z,9.31
2018-12-04T05:22:50.261Z,9.31
2018-12-04T05:24:50.299Z,9.32
2018-12-04T05:26:49.973Z,9.31
2018-12-04T05:28:49.994Z,9.31
2018-12-04T05:30:49.981Z,9.31
2018-12-04T05:32:50.018Z,9.32
2018-12-04T05:34:50.427Z,9.32
2018-12-04T05:36:50.585Z,9.31
2018-12-04T05:38:50.696Z,9.31
2018-12-04T05:40:49.727Z,9.30
2018-12-04T05:42:49.880Z,9.26
2018-12-04T05:44:49.790Z,9.27
2018-12-04T05:46:50.023Z,9.28
2018-12-04T05:48:49.994Z,9.26
2018-12-04T05:50:49.940Z,9.25
2018-12-04T05:52:49.930Z,9.24
2018-12-04T05:54:49.963Z,9.23
2018-12-04T05:56:50.160Z,9.22
2018-12-04T05:58:50.171Z,9.21
2018-12-04T06:00:50.220Z,9.22
2018-12-04T06:02:50.217Z,9.21
2018-12-04T06:04:50.494Z,9.20
2018-12-04T06:06:49.783Z,9.19
2018-12-04T06:08:49.763Z,9.18
2018-12-04T06:10:49.738Z,9.17
2018-12-04T06:12:49.757Z,9.15
2018-12-04T06:14:49.751Z,9.15
2018-12-04T06:16:49.939Z,9.13
2018-12-04T06:18:49.929Z,9.11
2018-12-04T06:20:49.939Z,9.10
2018-12-04T06:22:49.889Z,9.07
2018-12-04T06:24:49.942Z,9.07
2018-12-04T06:26:50.103Z,9.05
2018-12-04T06:28:50.074Z,9.04
2018-12-04T06:30:50.025Z,9.04
2018-12-04T06:32:50.039Z,9.01
2018-12-04T06:34:50.281Z,8.93
2018-12-04T06:36:50.028Z,8.82
2018-12-04T06:38:49.982Z,8.80
2018-12-04T06:40:49.913Z,8.73
2018-12-04T06:42:49.885Z,8.73
2018-12-04T06:44:49.942Z,8.59
2018-12-04T06:46:50.090Z,8.56
2018-12-04T06:48:50.092Z,8.45
2018-12-04T06:50:50.083Z,8.42
2018-12-04T06:52:50.098Z,8.38
2018-12-04T06:54:50.061Z,8.37
2018-12-04T06:56:50.374Z,8.35
2018-12-04T06:58:50.371Z,8.27
2018-12-04T07:00:50.286Z,8.25
2018-12-04T07:02:50.241Z,8.22
2018-12-04T07:04:50.648Z,8.21
2018-12-04T07:06:49.833Z,8.18
2018-12-04T07:08:49.817Z,8.12
2018-12-04T07:10:49.982Z,8.10
2018-12-04T07:12:50.478Z,8.08
2018-12-04T07:14:50.449Z,8.07
2018-12-04T07:16:49.742Z,8.04
2018-12-04T07:18:49.719Z,8.02
2018-12-04T07:20:49.716Z,7.99
2018-12-04T07:22:50.753Z,7.94
2018-12-04T07:24:49.855Z,7.92
2018-12-04T07:26:50.049Z,7.89
2018-12-04T07:28:49.963Z,7.90
2018-12-04T07:30:49.928Z,7.90
2018-12-04T07:32:49.953Z,7.91
2018-12-04T07:34:50.371Z,7.89
2018-12-04T07:36:50.663Z,7.86
2018-12-04T07:38:50.666Z,7.87
2018-12-04T07:40:49.747Z,7.91
2018-12-04T07:42:49.751Z,7.92
2018-12-04T07:44:49.852Z,7.93
2018-12-04T07:46:50.179Z,7.95
2018-12-04T07:48:50.130Z,7.95
2018-12-04T07:50:50.106Z,7.96
2018-12-04T07:52:50.080Z,7.95
2018-12-04T07:54:50.094Z,7.98
2018-12-04T07:56:50.218Z,8.00
2018-12-04T07:58:50.266Z,8.01
2018-12-04T08:00:50.291Z,8.02
2018-12-04T08:02:50.419Z,8.03
2018-12-04T08:04:50.557Z,8.03
2018-12-04T08:06:49.816Z,8.04
2018-12-04T08:08:49.931Z,8.06
2018-12-04T08:10:49.863Z,8.07
2018-12-04T08:12:49.866Z,8.05
2018-12-04T08:14:49.912Z,8.05
2018-12-04T08:16:50.064Z,8.02
2018-12-04T08:18:50.088Z,8.02
2018-12-04T08:20:50.110Z,8.00
2018-12-04T08:22:50.126Z,7.99
2018-12-04T08:24:50.074Z,7.98
2018-12-04T08:26:50.177Z,7.88
2018-12-04T08:28:50.162Z,7.85
2018-12-04T08:30:50.203Z,7.85
2018-12-04T08:32:50.191Z,7.74
2018-12-04T08:34:50.446Z,7.69
2018-12-04T08:36:50.618Z,7.68
2018-12-04T08:38:50.620Z,7.66
2018-12-04T08:40:50.661Z,7.67
2018-12-04T08:42:49.790Z,7.67
2018-12-04T08:44:49.708Z,7.66
2018-12-04T08:46:49.972Z,7.66
2018-12-04T08:48:49.929Z,7.66
2018-12-04T08:50:50.003Z,7.66
2018-12-04T08:52:50.075Z,7.67
2018-12-04T08:54:50.086Z,7.64
2018-12-04T08:56:50.312Z,7.63
2018-12-04T08:58:50.334Z,7.63
2018-12-04T09:00:50.344Z,7.56
2018-12-04T09:02:50.342Z,7.55
2018-12-04T09:04:49.812Z,7.52
2018-12-04T09:06:50.291Z,7.49
2018-12-04T09:08:50.611Z,7.46
2018-12-04T09:10:49.716Z,7.41
2018-12-04T09:12:49.894Z,7.40
2018-12-04T09:14:49.847Z,7.37
2018-12-04T09:16:50.114Z,7.39
2018-12-04T09:18:50.229Z,7.43
2018-12-04T09:20:50.345Z,7.44
2018-12-04T09:22:50.571Z,7.45
2018-12-04T09:24:49.837Z,7.43
2018-12-04T09:26:50.060Z,7.43
2018-12-04T09:28:50.256Z,7.39
2018-12-04T09:30:50.339Z,7.38
2018-12-04T09:32:50.320Z,7.35
2018-12-04T09:34:50.510Z,7.36
2018-12-04T09:36:49.698Z,7.37
2018-12-04T09:38:50.629Z,7.44
2018-12-04T09:40:50.609Z,7.46
2018-12-04T09:42:50.600Z,7.45
2018-12-04T09:44:50.515Z,7.46
2018-12-04T09:46:49.763Z,7.47
2018-12-04T09:48:49.753Z,7.47
2018-12-04T09:50:49.729Z,7.42
2018-12-04T09:52:49.768Z,7.41
2018-12-04T09:54:49.809Z,7.41
2018-12-04T09:56:50.126Z,7.42
2018-12-04T09:58:50.146Z,7.48
2018-12-04T10:00:50.073Z,7.49
2018-12-04T10:02:50.032Z,7.54
2018-12-04T10:04:50.235Z,7.59
2018-12-04T10:06:50.500Z,7.59
2018-12-04T10:08:50.479Z,7.57
2018-12-04T10:10:50.455Z,7.59
2018-12-04T10:12:50.653Z,7.59
2018-12-04T10:14:50.653Z,7.65
2018-12-04T10:16:49.948Z,7.65
2018-12-04T10:18:49.933Z,7.65
2018-12-04T10:20:49.914Z,7.70
2018-12-04T10:22:49.974Z,7.70
2018-12-04T10:24:49.958Z,7.77
2018-12-04T10:26:50.056Z,7.80
2018-12-04T10:28:50.059Z,7.83
2018-12-04T10:30:50.055Z,7.80
2018-12-04T10:32:50.181Z,7.75
2018-12-04T10:34:50.360Z,7.71
2018-12-04T10:36:50.557Z,7.76
2018-12-04T10:38:50.512Z,7.79
2018-12-04T10:40:50.473Z,7.89
2018-12-04T10:42:50.346Z,8.01
2018-12-04T10:44:50.301Z,8.01
2018-12-04T10:46:50.471Z,7.99
2018-12-04T10:48:50.457Z,7.87
2018-12-04T10:50:50.439Z,7.82
2018-12-04T10:52:50.565Z,7.79
2018-12-04T10:54:50.553Z,7.85
2018-12-04T10:56:49.728Z,7.89
2018-12-04T10:58:49.891Z,8.00
2018-12-04T11:00:49.881Z,8.01
2018-12-04T11:02:50.268Z,7.99
2018-12-04T11:04:50.628Z,8.03
2018-12-04T11:06:49.923Z,8.02
2018-12-04T11:08:49.989Z,8.00
2018-12-04T11:10:50.006Z,7.97
2018-12-04T11:12:50.044Z,8.01
2018-12-04T11:14:50.035Z,8.04
2018-12-04T11:16:50.316Z,8.13
2018-12-04T11:18:50.357Z,8.15
2018-12-04T11:20:50.356Z,8.08
2018-12-04T11:22:50.409Z,8.06
2018-12-04T11:24:50.377Z,8.02
2018-12-04T11:26:50.529Z,8.01
2018-12-04T11:28:50.537Z,8.02
2018-12-04T11:30:50.506Z,7.98
2018-12-04T11:32:50.568Z,8.00
2018-12-04T11:34:49.998Z,8.02
2018-12-04T11:36:50.142Z,8.03
2018-12-04T11:38:50.292Z,8.04
2018-12-04T11:40:50.416Z,8.14
2018-12-04T11:42:50.472Z,8.26
2018-12-04T11:44:50.580Z,8.23
2018-12-04T11:46:49.713Z,8.18
2018-12-04T11:48:50.614Z,8.14
2018-12-04T11:50:50.632Z,8.14
2018-12-04T11:52:50.629Z,8.17
2018-12-04T11:54:50.577Z,8.15
2018-12-04T11:56:49.741Z,8.14
2018-12-04T11:58:50.652Z,8.14
2018-12-04T12:00:50.715Z,8.12
2018-12-04T12:02:49.676Z,8.09
2018-12-04T12:04:49.921Z,8.10
2018-12-04T12:06:50.109Z,8.09
2018-12-04T12:08:50.075Z,8.15
2018-12-04T12:10:50.083Z,8.07
2018-12-04T12:12:50.118Z,8.05
2018-12-04T12:14:50.307Z,8.08
2018-12-04T12:16:50.590Z,8.20
2018-12-04T12:18:50.756Z,8.27
2018-12-04T12:20:49.894Z,8.31
2018-12-04T12:22:50.049Z,8.33
2018-12-04T12:24:50.217Z,8.35
2018-12-04T12:26:50.617Z,8.39
2018-12-04T12:28:50.655Z,8.39
2018-12-04T12:30:49.988Z,8.37
2018-12-04T12:32:50.070Z,8.32
2018-12-04T12:34:50.530Z,8.30
2018-12-04T12:36:49.875Z,8.28
2018-12-04T12:38:50.038Z,8.22
2018-12-04T12:40:49.900Z,8.22
2018-12-04T12:42:49.848Z,8.24
2018-12-04T12:44:49.871Z,8.30
2018-12-04T12:46:50.067Z,8.31
2018-12-04T12:48:50.052Z,8.42
2018-12-04T12:50:50.017Z,8.43
2018-12-04T12:52:50.019Z,8.26
2018-12-04T12:54:50.024Z,8.20
2018-12-04T12:56:50.271Z,8.10
2018-12-04T12:58:50.655Z,8.09
2018-12-04T13:00:50.670Z,8.07
2018-12-04T13:02:50.609Z,7.99
2018-12-04T13:04:49.875Z,7.99
2018-12-04T13:06:50.057Z,7.96
2018-12-04T13:08:50.023Z,7.92
2018-12-04T13:10:49.983Z,7.86
2018-12-04T13:12:50.023Z,7.83
2018-12-04T13:14:50.012Z,7.79
2018-12-04T13:16:50.096Z,7.81
2018-12-04T13:18:50.273Z,7.81
2018-12-04T13:20:50.513Z,7.91
2018-12-04T13:22:50.564Z,7.93
2018-12-04T13:24:50.503Z,7.91
2018-12-04T13:26:50.696Z,7.82
2018-12-04T13:28:50.586Z,7.81
2018-12-04T13:30:50.667Z,7.82
2018-12-04T13:32:50.152Z,7.84
2018-12-04T13:34:50.428Z,7.85
2018-12-04T13:36:50.652Z,7.84
2018-12-04T13:38:49.785Z,7.84
2018-12-04T13:40:49.820Z,7.78
2018-12-04T13:42:49.818Z,7.75
2018-12-04T13:44:49.852Z,7.69
2018-12-04T13:46:50.083Z,7.67
2018-12-04T13:48:50.099Z,7.67
2018-12-04T13:50:50.152Z,7.66
2018-12-04T13:52:50.208Z,7.63
2018-12-04T13:54:50.271Z,7.61
2018-12-04T13:56:50.435Z,7.52
2018-12-04T13:58:50.412Z,7.47
2018-12-04T14:00:50.476Z,7.43
2018-12-04T14:02:50.560Z,7.42
2018-12-04T14:04:50.018Z,7.42
2018-12-04T14:06:50.213Z,7.37
2018-12-04T14:08:50.262Z,7.34
2018-12-04T14:10:50.336Z,7.29
2018-12-04T14:12:50.431Z,7.28
2018-12-04T14:14:50.538Z,7.26
2018-12-04T14:16:50.632Z,7.22
2018-12-04T14:18:50.782Z,7.21
2018-12-04T14:20:49.885Z,7.14
2018-12-04T14:22:49.893Z,7.09
2018-12-04T14:24:49.879Z,7.00
2018-12-04T14:26:50.110Z,6.93
2018-12-04T14:28:50.072Z,6.86
2018-12-04T14:30:50.183Z,6.77
2018-12-04T14:32:50.234Z,6.77
2018-12-04T14:34:50.639Z,6.68
2018-12-04T14:36:49.799Z,6.68
2018-12-04T14:38:49.835Z,6.62
2018-12-04T14:40:49.850Z,6.58
2018-12-04T14:42:49.958Z,6.56
2018-12-04T14:44:50.057Z,6.53
2018-12-04T14:46:50.390Z,6.52
2018-12-04T14:48:50.571Z,6.49
2018-12-04T14:50:50.519Z,6.48
2018-12-04T14:52:50.598Z,6.43
2018-12-04T14:54:50.612Z,6.41
2018-12-04T14:56:49.938Z,6.34
2018-12-04T14:58:51.303Z,6.29
2018-12-04T15:00:50.352Z,6.23
2018-12-04T15:02:50.395Z,6.17
2018-12-04T15:04:49.897Z,6.08
2018-12-04T15:06:50.087Z,5.98
2018-12-04T15:08:50.351Z,5.85
2018-12-04T15:10:50.392Z,5.65
2018-12-04T15:12:50.470Z,5.60
2018-12-04T15:14:50.585Z,5.44
2018-12-04T15:16:55.636Z,5.36
2018-12-04T15:18:50.642Z,5.18
2018-12-04T15:20:49.784Z,5.01
2018-12-04T15:22:49.870Z,5.03
2018-12-04T15:24:49.915Z,5.09
2018-12-04T15:26:50.315Z,5.09
2018-12-04T15:28:50.348Z,5.07
2018-12-04T15:30:50.366Z,5.08
2018-12-04T15:32:50.478Z,4.87
2018-12-04T15:34:49.923Z,4.80
2018-12-04T15:36:57.116Z,4.84
2018-12-04T15:38:50.113Z,4.93
2018-12-04T15:40:50.175Z,4.94
2018-12-04T15:42:50.228Z,4.92
2018-12-04T15:44:50.325Z,4.90
2018-12-04T15:46:50.560Z,4.91
2018-12-04T15:48:50.654Z,4.90
2018-12-04T15:50:50.690Z,4.88
2018-12-04T15:52:50.758Z,4.82
2018-12-04T15:54:49.914Z,4.68
2018-12-04T15:56:50.153Z,4.60
2018-12-04T15:58:50.330Z,4.59
2018-12-04T16:00:50.301Z,4.60
2018-12-04T16:02:50.339Z,4.73
2018-12-04T16:04:49.772Z,4.73
2018-12-04T16:06:49.850Z,4.75
2018-12-04T16:08:49.857Z,4.72
2018-12-04T16:10:49.971Z,4.70
2018-12-04T16:12:50.033Z,4.66
2018-12-04T16:14:49.969Z,4.55
2018-12-04T16:16:50.123Z,4.50
2018-12-04T16:18:50.121Z,4.33
2018-12-04T16:20:50.067Z,4.19
2018-12-04T16:22:50.043Z,4.22
2018-12-04T16:24:49.974Z,4.23
2018-12-04T16:26:50.157Z,4.04
2018-12-04T16:28:50.104Z,4.00
2018-12-04T16:30:50.108Z,3.89
2018-12-04T16:32:50.166Z,3.81
2018-12-04T16:34:50.435Z,3.78
2018-12-04T16:36:49.720Z,3.87
2018-12-04T16:38:49.785Z,3.90
2018-12-04T16:40:49.790Z,3.92
2018-12-04T16:42:49.789Z,3.92
2018-12-04T16:44:49.872Z,3.70
2018-12-04T16:46:50.111Z,3.61
2018-12-04T16:48:50.246Z,3.48
2018-12-04T16:50:50.210Z,3.30
2018-12-04T16:52:50.186Z,3.23
2018-12-04T16:54:50.181Z,3.07
2018-12-04T16:56:50.285Z,3.00
2018-12-04T16:58:50.309Z,2.87
2018-12-04T17:00:50.343Z,2.83
2018-12-04T17:02:50.347Z,2.71
2018-12-04T17:04:49.750Z,2.69
2018-12-04T17:06:49.964Z,2.64
2018-12-04T17:08:49.955Z,2.62
2018-12-04T17:10:49.903Z,2.59
2018-12-04T17:12:49.890Z,2.57
2018-12-04T17:14:49.872Z,2.51
2018-12-04T17:16:50.182Z,2.46
2018-12-04T17:18:50.137Z,2.38
2018-12-04T17:20:50.486Z,2.41
2018-12-04T17:22:50.503Z,2.43
2018-12-04T17:24:50.415Z,2.48
2018-12-04T17:26:49.762Z,2.44
2018-12-04T17:28:49.700Z,2.39
2018-12-04T17:30:49.825Z,2.32
2018-12-04T17:32:49.998Z,2.30
2018-12-04T17:34:50.411Z,2.19
2018-12-04T17:36:50.575Z,2.15
2018-12-04T17:38:50.536Z,2.11
2018-12-04T17:40:50.581Z,2.02
2018-12-04T17:42:50.592Z,1.98
2018-12-04T17:44:50.572Z,1.88
2018-12-04T17:46:49.813Z,1.88
2018-12-04T17:48:49.769Z,1.88
2018-12-04T17:50:49.853Z,1.74
2018-12-04T17:52:49.915Z,1.65
2018-12-04T17:54:49.963Z,1.59
2018-12-04T17:56:50.274Z,1.55
2018-12-04T17:58:50.314Z,1.55
2018-12-04T18:00:50.282Z,1.56
2018-12-04T18:02:50.372Z,1.54
2018-12-04T18:04:50.669Z,1.51
2018-12-04T18:06:49.941Z,1.50
2018-12-04T18:08:50.046Z,1.46
2018-12-04T18:10:50.045Z,1.45
2018-12-04T18:12:49.995Z,1.40
2018-12-04T18:14:50.023Z,1.38
2018-12-04T18:16:50.251Z,1.34
2018-12-04T18:18:50.221Z,1.33
2018-12-04T18:20:50.223Z,1.30
2018-12-04T18:22:50.178Z,1.26
2018-12-04T18:24:50.208Z,1.28
2018-12-04T18:26:50.448Z,1.27
2018-12-04T18:28:50.443Z,1.24
2018-12-04T18:30:50.511Z,1.16
2018-12-04T18:32:50.621Z,1.16
2018-12-04T18:34:50.147Z,1.03
2018-12-04T18:36:50.258Z,1.03
2018-12-04T18:38:50.228Z,1.01
2018-12-04T18:40:50.261Z,0.99
2018-12-04T18:42:50.261Z,0.96
2018-12-04T18:44:50.251Z,0.94
2018-12-04T18:46:50.573Z,0.87
2018-12-04T18:48:50.595Z,0.85
2018-12-04T18:50:50.551Z,0.86
2018-12-04T18:52:50.497Z,0.86
2018-12-04T18:54:50.458Z,0.80
2018-12-04T18:56:50.631Z,0.79
2018-12-04T18:58:50.595Z,0.80
2018-12-04T19:00:50.732Z,0.79
2018-12-04T19:02:49.786Z,0.73
2018-12-04T19:04:50.023Z,0.70
2018-12-04T19:06:50.154Z,0.69
2018-12-04T19:08:50.134Z,0.68
2018-12-04T19:10:50.208Z,0.66
2018-12-04T19:12:50.205Z,0.66
2018-12-04T19:14:50.220Z,0.57
2018-12-04T19:16:50.341Z,0.57
2018-12-04T19:18:50.327Z,0.56
2018-12-04T19:20:50.388Z,0.57
2018-12-04T19:22:50.478Z,0.54
2018-12-04T19:24:50.514Z,0.52
2018-12-04T19:26:49.769Z,0.50
2018-12-04T19:28:49.718Z,0.39
2018-12-04T19:30:49.824Z,0.35
2018-12-04T19:32:49.786Z,0.32
2018-12-04T19:34:50.286Z,0.30
2018-12-04T19:36:50.453Z,0.20
2018-12-04T19:38:50.438Z,0.16
2018-12-04T19:40:50.513Z,0.16
2018-12-04T19:42:50.399Z,0.10
2018-12-04T19:44:50.397Z,0.10
2018-12-04T19:46:50.487Z,0.08
2018-12-04T19:48:50.396Z,0.02
